Time;durP1;ratioP1;P1;durP2;ratioP2;P2;SDS_P1;SDS_P2;PMS_P1;PMS_P2;Temp;Humidity;BMP_temperature;BMP_pressure;BME280_temperature;BME280_humidity;BME280_pressure;Samples;Min_cycle;Max_cycle;Signal;HPM_P1;HPM_P2
2022/01/24 00:01:44;;;;;;;;;;;;;;;14.65;53.70;102483.50;4984170;28;99250;-57
2022/01/24 00:04:09;;;;;;;;;;;;;;;14.64;53.72;102479.13;4984215;28;97790;-57
2022/01/24 00:06:36;;;;;;;;;;;;;;;14.65;54.00;102482.69;4983536;27;103012;-64
2022/01/24 00:09:03;;;;;;;;;;;;;;;14.65;54.06;102482.69;4983891;27;98023;-65
2022/01/24 00:16:59;;;;;;;;;;;;;;;14.64;53.62;102478.31;4983532;27;97808;-64
2022/01/24 00:27:16;;;;;;;;;;;;;;;14.61;53.73;102478.81;4979019;28;98855;-57
2022/01/24 00:29:42;;;;;;;;;;;;;;;14.61;53.74;102470.66;4982455;27;116823;-57
2022/01/24 00:32:08;;;;;;;;;;;;;;;14.59;53.99;102468.22;4983006;28;108022;-57
2022/01/24 00:34:34;;;;;;;;;;;;;;;14.58;53.65;102468.44;4982042;28;120106;-64
2022/01/24 00:37:00;;;;;;;;;;;;;;;14.58;53.66;102472.00;4982627;28;113680;-57
2022/01/24 00:39:26;;;;;;;;;;;;;;;14.58;53.70;102466.56;4982926;27;97856;-57
2022/01/24 00:42:06;;;;;;;;;;;;;;;14.58;53.87;102472.00;4982829;28;98164;-64
2022/01/24 00:44:45;;;;;;;;;;;;;;;14.58;53.87;102472.00;4982343;27;98447;-56
2022/01/24 00:47:21;;;;;;;;;;;;;;;14.58;53.82;102472.00;4983291;27;98527;-56
2022/01/24 00:55:16;;;;;;;;;;;;;;;14.58;54.03;102479.28;4981839;27;97879;-56
2022/01/24 00:57:42;;;;;;;;;;;;;;;14.56;53.66;102474.13;4981525;28;113243;-64
2022/01/24 01:00:08;;;;;;;;;;;;;;;14.58;53.57;102476.56;4981825;28;116976;-56
2022/01/24 01:02:34;;;;;;;;;;;;;;;14.57;53.53;102466.78;4981687;27;115410;-64
2022/01/24 01:18:16;;;;;;;;;;;;;;;14.57;53.82;102474.94;4979840;28;97813;-56
2022/01/24 01:23:32;;;;;;;;;;;;;;;14.58;53.76;102474.72;4979926;27;98366;-56
2022/01/24 01:26:01;;;;;;;;;;;;;;;14.58;53.59;102476.56;4982008;27;98619;-57
2022/01/24 01:28:28;;;;;;;;;;;;;;;14.57;53.53;102480.38;4982339;27;98170;-64
2022/01/24 01:30:58;;;;;;;;;;;;;;;14.58;53.89;102479.28;4981985;27;98019;-64
2022/01/24 01:36:36;;;;;;;;;;;;;;;14.58;53.52;102480.13;4943158;27;98066;-56
2022/01/24 01:39:35;;;;;;;;;;;;;;;14.60;53.60;102477.16;4982487;28;98105;-64
2022/01/24 01:53:29;;;;;;;;;;;;;;;14.59;53.65;102470.91;4979692;28;98115;-57
2022/01/24 01:55:51;;;;;;;;;;;;;;;14.60;53.59;102472.56;4981545;28;98662;-64
2022/01/24 01:58:21;;;;;;;;;;;;;;;14.60;53.88;102475.28;4982128;28;128040;-64
2022/01/24 02:00:49;;;;;;;;;;;;;;;14.59;53.59;102462.78;4979685;27;98042;-56
2022/01/24 02:03:15;;;;;;;;;;;;;;;14.60;53.93;102464.41;4982033;28;97956;-56
2022/01/24 02:05:41;;;;;;;;;;;;;;;14.60;53.42;102463.59;4981916;27;98347;-56
2022/01/24 02:08:07;;;;;;;;;;;;;;;14.60;53.83;102463.59;4980637;27;128423;-56
2022/01/24 02:10:35;;;;;;;;;;;;;;;14.60;53.79;102469.03;4981830;27;98118;-64
2022/01/24 02:13:01;;;;;;;;;;;;;;;14.59;53.54;102464.69;4982159;27;97822;-65
2022/01/24 02:18:04;;;;;;;;;;;;;;;14.60;53.83;102460.88;4978242;27;116017;-64
2022/01/24 02:20:53;;;;;;;;;;;;;;;14.60;53.86;102469.03;4980435;28;98056;-57
2022/01/24 02:26:00;;;;;;;;;;;;;;;14.60;53.82;102461.72;4978809;28;98378;-56
2022/01/24 02:28:30;;;;;;;;;;;;;;;14.60;53.98;102461.72;4981988;28;98103;-56
2022/01/24 02:33:44;;;;;;;;;;;;;;;14.60;53.93;102450.84;4979820;28;98173;-56
2022/01/24 02:36:10;;;;;;;;;;;;;;;14.59;53.83;102451.94;4981182;27;98840;-56
2022/01/24 02:49:32;;;;;;;;;;;;;;;14.61;53.88;102454.38;4979704;27;98107;-56
2022/01/24 02:52:08;;;;;;;;;;;;;;;14.60;53.79;102455.47;4980557;28;116199;-64
2022/01/24 02:54:34;;;;;;;;;;;;;;;14.61;53.70;102457.09;4980905;27;97837;-56
2022/01/24 02:57:01;;;;;;;;;;;;;;;14.60;53.58;102452.75;4980115;27;104383;-58
2022/01/24 02:59:27;;;;;;;;;;;;;;;14.61;53.54;102448.94;4981102;28;98623;-63
2022/01/24 03:01:53;;;;;;;;;;;;;;;14.60;53.47;102450.03;4976168;27;127158;-56
2022/01/24 03:04:19;;;;;;;;;;;;;;;14.60;53.51;102444.59;4982083;27;100302;-64
2022/01/24 03:06:45;;;;;;;;;;;;;;;14.60;53.70;102445.41;4979391;27;128196;-64
2022/01/24 03:09:11;;;;;;;;;;;;;;;14.60;53.58;102450.84;4980333;28;118948;-64
2022/01/24 03:12:00;;;;;;;;;;;;;;;14.60;53.84;102459.00;4980852;28;98255;-64
2022/01/24 03:14:27;;;;;;;;;;;;;;;14.60;53.54;102447.31;4980658;27;98502;-64
2022/01/24 03:16:54;;;;;;;;;;;;;;;14.61;53.71;102446.25;4980110;27;98782;-62
2022/01/24 03:19:19;;;;;;;;;;;;;;;14.61;53.47;102443.53;4980961;27;101160;-64
2022/01/24 03:21:45;;;;;;;;;;;;;;;14.61;53.85;102454.38;4980220;28;123338;-61
2022/01/24 03:24:12;;;;;;;;;;;;;;;14.61;53.97;102452.47;4980972;27;98105;-63
2022/01/24 03:26:38;;;;;;;;;;;;;;;14.61;53.49;102454.38;4979959;27;122416;-56
2022/01/24 03:29:04;;;;;;;;;;;;;;;14.61;53.40;102440.81;4979668;28;116676;-63
2022/01/24 03:31:30;;;;;;;;;;;;;;;14.60;53.67;102448.13;4980067;28;98987;-57
2022/01/24 03:33:56;;;;;;;;;;;;;;;14.62;53.46;102442.44;4980540;27;111135;-65
2022/01/24 03:36:22;;;;;;;;;;;;;;;14.61;53.49;102441.63;4960056;28;123479;-63
2022/01/24 03:38:48;;;;;;;;;;;;;;;14.61;53.81;102441.63;4976985;28;128037;-58
2022/01/24 03:41:14;;;;;;;;;;;;;;;14.60;53.45;102436.47;4979704;27;121054;-64
2022/01/24 03:43:39;;;;;;;;;;;;;;;14.60;53.68;102445.41;4980960;28;97903;-56
2022/01/24 03:48:48;;;;;;;;;;;;;;;14.62;53.54;102445.16;4977445;27;98462;-64
2022/01/24 03:51:14;;;;;;;;;;;;;;;14.61;53.54;102438.91;4980704;28;98513;-63
2022/01/24 03:53:40;;;;;;;;;;;;;;;14.61;53.56;102440.81;4980689;27;97972;-63
2022/01/24 03:56:06;;;;;;;;;;;;;;;14.62;53.72;102439.72;4980146;27;98671;-56
2022/01/24 03:58:32;;;;;;;;;;;;;;;14.62;53.89;102439.72;4979918;27;98938;-64
2022/01/24 04:00:58;;;;;;;;;;;;;;;14.61;53.51;102436.19;4978271;28;125954;-56
2022/01/24 04:03:24;;;;;;;;;;;;;;;14.62;53.89;102445.16;4980085;28;97888;-64
2022/01/24 04:05:50;;;;;;;;;;;;;;;14.62;53.89;102443.28;4978929;28;116185;-63
2022/01/24 04:08:16;;;;;;;;;;;;;;;14.61;53.83;102436.19;4979863;28;128450;-56
2022/01/24 04:10:45;;;;;;;;;;;;;;;14.61;53.81;102438.91;4978853;27;98043;-57
2022/01/24 04:13:29;;;;;;;;;;;;;;;14.61;53.49;102443.53;4980502;27;97938;-64
2022/01/24 04:23:54;;;;;;;;;;;;;;;14.61;53.83;102440.81;4979873;28;97701;-64
2022/01/24 04:26:20;;;;;;;;;;;;;;;14.62;53.51;102442.44;4984101;27;97918;-64
2022/01/24 04:28:46;;;;;;;;;;;;;;;14.61;53.88;102444.34;4983138;27;98069;-63
2022/01/24 04:31:12;;;;;;;;;;;;;;;14.61;53.72;102447.06;4982137;28;120699;-56
2022/01/24 04:33:38;;;;;;;;;;;;;;;14.62;53.59;102445.16;4982982;28;97843;-56
2022/01/24 04:36:04;;;;;;;;;;;;;;;14.61;53.89;102441.63;4981181;28;129409;-64
2022/01/24 04:38:30;;;;;;;;;;;;;;;14.61;53.79;102455.19;4981861;27;118568;-56
2022/01/24 04:41:00;;;;;;;;;;;;;;;14.63;53.47;102454.97;4982289;27;128373;-64
2022/01/24 04:46:05;;;;;;;;;;;;;;;14.62;53.91;102456.03;4981316;27;116921;-57
2022/01/24 04:54:27;;;;;;;;;;;;;;;14.63;53.86;102454.97;4967593;28;97970;-57
2022/01/24 04:56:49;;;;;;;;;;;;;;;14.62;53.47;102448.72;4982350;27;98997;-55
2022/01/24 04:59:15;;;;;;;;;;;;;;;14.61;53.85;102452.47;4981730;28;127489;-64
2022/01/24 05:01:40;;;;;;;;;;;;;;;14.63;53.44;102458.50;4982885;27;100527;-63
2022/01/24 05:04:06;;;;;;;;;;;;;;;14.63;53.77;102454.97;4982387;28;117375;-64
2022/01/24 05:06:32;;;;;;;;;;;;;;;14.63;53.64;102460.41;4980378;28;98173;-56
2022/01/24 05:08:58;;;;;;;;;;;;;;;14.64;53.80;102467.47;4982057;27;98424;-56
2022/01/24 05:11:36;;;;;;;;;;;;;;;14.64;53.69;102459.31;4981345;28;127383;-63
2022/01/24 05:24:45;;;;;;;;;;;;;;;14.65;53.86;102463.66;4979134;27;97866;-57
2022/01/24 05:27:11;;;;;;;;;;;;;;;14.65;53.84;102469.91;4982295;28;128750;-56
2022/01/24 05:29:36;;;;;;;;;;;;;;;14.65;53.84;102477.25;4981870;28;125346;-56
2022/01/24 05:32:03;;;;;;;;;;;;;;;14.67;53.88;102475.13;4981244;28;127867;-63
2022/01/24 05:34:29;;;;;;;;;;;;;;;14.66;53.53;102482.44;4982445;27;97931;-64
2022/01/24 05:36:55;;;;;;;;;;;;;;;14.66;53.71;102478.91;4982216;27;99607;-55
2022/01/24 05:39:21;;;;;;;;;;;;;;;14.68;53.43;102479.47;4979275;28;126827;-63
2022/01/24 05:41:47;;;;;;;;;;;;;;;14.67;53.60;102478.66;4977185;27;127195;-56
2022/01/24 05:44:13;;;;;;;;;;;;;;;14.68;53.80;102488.44;4977990;28;118582;-64
2022/01/24 05:46:38;;;;;;;;;;;;;;;14.68;53.79;102483.00;4977408;28;126904;-64
2022/01/24 05:49:04;;;;;;;;;;;;;;;14.68;53.85;102491.16;4976791;28;113703;-64
2022/01/24 05:51:30;;;;;;;;;;;;;;;14.68;53.98;102487.63;4981983;27;126158;-64
2022/01/24 05:53:56;;;;;;;;;;;;;;;14.69;53.41;102489.25;4981711;27;97982;-63
2022/01/24 05:56:22;;;;;;;;;;;;;;;14.69;53.52;102487.34;4981565;28;108319;-64
2022/01/24 05:58:48;;;;;;;;;;;;;;;14.70;53.79;102482.78;4979979;28;99103;-64
2022/01/24 06:01:14;;;;;;;;;;;;;;;14.69;53.59;102487.34;4980445;28;125837;-64
2022/01/24 06:03:40;;;;;;;;;;;;;;;14.69;53.46;102495.50;4980206;27;117443;-64
2022/01/24 06:06:08;;;;;;;;;;;;;;;14.68;53.42;102495.75;4980337;28;129297;-64
2022/01/24 06:08:34;;;;;;;;;;;;;;;14.69;53.82;102495.50;4981628;27;99762;-63
2022/01/24 06:11:00;;;;;;;;;;;;;;;14.69;53.80;102494.69;4980778;27;99369;-64
2022/01/24 06:13:26;;;;;;;;;;;;;;;14.69;53.38;102491.97;4980628;28;117600;-63
2022/01/24 06:15:52;;;;;;;;;;;;;;;14.68;53.85;102487.63;4980510;27;99094;-64
2022/01/24 06:18:20;;;;;;;;;;;;;;;14.69;53.43;102494.69;4980559;27;108519;-64
2022/01/24 06:20:46;;;;;;;;;;;;;;;14.67;53.83;102488.69;4980900;27;98799;-64
2022/01/24 06:23:15;;;;;;;;;;;;;;;14.68;53.80;102491.16;4982902;27;97819;-64
2022/01/24 06:25:41;;;;;;;;;;;;;;;14.68;53.49;102499.28;4980914;27;117440;-64
2022/01/24 06:28:07;;;;;;;;;;;;;;;14.68;53.59;102487.63;4981889;27;98600;-64
2022/01/24 06:30:33;;;;;;;;;;;;;;;14.68;53.82;102493.03;4980389;27;110664;-64
2022/01/24 06:32:59;;;;;;;;;;;;;;;14.68;53.62;102493.03;4979946;28;118695;-64
2022/01/24 06:35:25;;;;;;;;;;;;;;;14.68;53.51;102493.88;4980220;27;125156;-64
2022/01/24 06:37:51;;;;;;;;;;;;;;;14.67;53.80;102492.22;4981309;28;125058;-64
2022/01/24 06:40:17;;;;;;;;;;;;;;;14.69;53.35;102490.06;4980404;28;102462;-64
2022/01/24 06:42:43;;;;;;;;;;;;;;;14.69;53.39;102505.53;4981039;28;107146;-63
2022/01/24 06:45:09;;;;;;;;;;;;;;;14.69;53.43;102500.09;4976918;27;127233;-64
2022/01/24 06:47:35;;;;;;;;;;;;;;;14.67;53.46;102488.69;4982211;27;98254;-64
2022/01/24 06:50:02;;;;;;;;;;;;;;;14.68;53.50;102502.00;4980070;27;97998;-64
2022/01/24 06:52:27;;;;;;;;;;;;;;;14.69;53.44;102508.25;4981032;27;101967;-65
2022/01/24 06:54:53;;;;;;;;;;;;;;;14.68;53.77;102502.00;4980330;27;98445;-64
2022/01/24 06:57:19;;;;;;;;;;;;;;;14.68;53.31;102504.72;4979824;28;116672;-64
2022/01/24 06:59:46;;;;;;;;;;;;;;;14.68;53.58;102507.44;4980416;27;98189;-64
2022/01/24 07:02:12;;;;;;;;;;;;;;;14.70;53.58;102509.91;4979872;27;117945;-57
2022/01/24 07:04:39;;;;;;;;;;;;;;;14.70;53.51;102518.06;4980462;27;98435;-64
2022/01/24 07:07:06;;;;;;;;;;;;;;;14.71;53.40;102519.69;4980947;28;98713;-63
2022/01/24 07:09:32;;;;;;;;;;;;;;;14.70;53.34;102518.88;4980284;27;99634;-63
2022/01/24 07:11:58;;;;;;;;;;;;;;;14.73;53.71;102520.25;4980258;28;113421;-64
2022/01/24 07:14:23;;;;;;;;;;;;;;;14.73;53.57;102529.22;4980305;27;98460;-56
2022/01/24 07:19:21;;;;;;;;;;;;;;;14.77;53.44;102528.75;4978096;27;97813;-64
2022/01/24 07:21:47;;;;;;;;;;;;;;;14.78;53.73;102522.28;4980306;27;105879;-57
2022/01/24 07:24:13;;;;;;;;;;;;;;;14.79;53.67;102530.16;4980045;28;106133;-64
2022/01/24 07:26:39;;;;;;;;;;;;;;;14.81;53.69;102528.00;5011051;27;127439;-56
2022/01/24 07:29:05;;;;;;;;;;;;;;;14.83;53.42;102528.59;4977619;28;127784;-64
2022/01/24 07:31:31;;;;;;;;;;;;;;;14.84;53.44;102524.81;4979200;27;118013;-64
2022/01/24 07:33:57;;;;;;;;;;;;;;;14.86;53.28;102528.09;4979289;28;128736;-63
2022/01/24 07:36:24;;;;;;;;;;;;;;;14.87;53.29;102537.88;4980144;28;128043;-63
2022/01/24 07:38:49;;;;;;;;;;;;;;;14.89;53.18;102532.19;4979071;28;116109;-64
2022/01/24 07:41:22;;;;;;;;;;;;;;;14.89;53.41;102541.16;4978312;27;117028;-64
2022/01/24 07:43:48;;;;;;;;;;;;;;;14.90;53.63;102547.44;4978227;28;98559;-65
2022/01/24 07:46:14;;;;;;;;;;;;;;;14.91;53.43;102543.66;4979297;27;120918;-64
2022/01/24 07:48:40;;;;;;;;;;;;;;;14.92;53.32;102548.81;4980452;27;119299;-64
2022/01/24 07:51:06;;;;;;;;;;;;;;;14.93;53.24;102547.78;4983854;28;102630;-64
2022/01/24 07:53:32;;;;;;;;;;;;;;;14.94;53.72;102535.84;4985023;28;100451;-64
2022/01/24 07:55:58;;;;;;;;;;;;;;;14.95;53.36;102542.09;4982222;28;128363;-64
2022/01/24 07:58:24;;;;;;;;;;;;;;;14.98;53.29;102541.59;4983636;28;98488;-64
2022/01/24 08:00:50;;;;;;;;;;;;;;;14.98;53.35;102542.44;4983064;27;108024;-63
2022/01/24 08:03:16;;;;;;;;;;;;;;;15.01;53.39;102543.81;4981129;28;118472;-65
2022/01/24 08:05:42;;;;;;;;;;;;;;;15.04;53.73;102547.94;4982798;28;111144;-64
2022/01/24 08:08:07;;;;;;;;;;;;;;;15.04;53.42;102546.03;4982763;27;97966;-64
2022/01/24 08:10:34;;;;;;;;;;;;;;;15.05;53.31;102544.97;4981820;28;117349;-65
2022/01/24 08:12:59;;;;;;;;;;;;;;;15.08;53.52;102555.31;4981918;28;122746;-64
2022/01/24 08:15:25;;;;;;;;;;;;;;;15.12;53.39;102555.66;4981773;28;99253;-65
2022/01/24 08:17:51;;;;;;;;;;;;;;;15.13;53.38;102555.44;4981218;28;98015;-64
2022/01/24 08:20:17;;;;;;;;;;;;;;;15.15;53.55;102558.72;4982433;27;118643;-64
2022/01/24 08:22:43;;;;;;;;;;;;;;;15.16;53.43;102560.34;4983099;27;98211;-64
2022/01/24 08:25:10;;;;;;;;;;;;;;;15.19;53.33;102554.41;4978734;27;98449;-64
2022/01/24 08:27:36;;;;;;;;;;;;;;;15.23;53.31;102555.56;4982901;27;110957;-64
2022/01/24 08:30:18;;;;;;;;;;;;;;;15.28;53.36;102556.72;4982750;27;115664;-64
2022/01/24 08:32:44;;;;;;;;;;;;;;;15.33;53.58;102557.63;4967650;28;100519;-64
2022/01/24 08:35:10;;;;;;;;;;;;;;;15.38;53.29;102552.28;4982364;27;98351;-64
2022/01/24 08:37:36;;;;;;;;;;;;;;;15.41;53.60;102551.78;4982847;27;98397;-64
2022/01/24 08:40:07;;;;;;;;;;;;;;;15.44;53.10;102555.88;4983244;28;97799;-64
2022/01/24 08:47:27;;;;;;;;;;;;;;;15.52;53.68;102555.44;4978654;27;118632;-64
2022/01/24 08:49:53;;;;;;;;;;;;;;;15.63;53.35;102559.13;4983189;28;97913;-64
2022/01/24 08:52:19;;;;;;;;;;;;;;;15.68;53.52;102557.34;4983286;27;98290;-57
2022/01/24 08:54:45;;;;;;;;;;;;;;;15.71;53.22;102554.13;4982408;27;105097;-57
2022/01/24 08:57:13;;;;;;;;;;;;;;;15.73;53.65;102553.06;4982614;28;98302;-64
2022/01/24 08:59:39;;;;;;;;;;;;;;;15.76;53.30;102555.25;4981441;27;98055;-65
2022/01/24 09:02:05;;;;;;;;;;;;;;;15.77;53.41;102552.31;4981871;28;121380;-64
2022/01/24 09:04:31;;;;;;;;;;;;;;;15.79;53.29;102552.84;4981694;27;98957;-64
2022/01/24 09:07:00;;;;;;;;;;;;;;;15.82;53.61;102554.25;4980323;28;122390;-60
2022/01/24 09:09:26;;;;;;;;;;;;;;;15.85;53.35;102549.13;4982097;28;98036;-57
2022/01/24 09:11:52;;;;;;;;;;;;;;;15.89;53.66;102558.44;4981253;27;105008;-64
2022/01/24 09:14:18;;;;;;;;;;;;;;;15.98;53.60;102558.81;4982102;28;98704;-57
2022/01/24 09:16:46;;;;;;;;;;;;;;;16.06;53.40;102555.66;4981137;28;126351;-57
2022/01/24 09:19:12;;;;;;;;;;;;;;;16.13;53.50;102559.00;4983406;27;98088;-64
2022/01/24 09:21:38;;;;;;;;;;;;;;;16.24;53.32;102550.97;4981806;28;107186;-57
2022/01/24 09:24:04;;;;;;;;;;;;;;;16.33;53.21;102549.41;4981399;28;128586;-57
2022/01/24 09:26:30;;;;;;;;;;;;;;;16.38;53.21;102549.47;4979166;28;124339;-57
2022/01/24 09:28:56;;;;;;;;;;;;;;;16.39;53.38;102551.94;4982535;27;105866;-56
2022/01/24 09:31:22;;;;;;;;;;;;;;;16.40;53.35;102545.41;4981747;28;114634;-64
2022/01/24 09:33:49;;;;;;;;;;;;;;;16.45;53.53;102550.91;4982181;27;99293;-64
2022/01/24 09:36:15;;;;;;;;;;;;;;;16.51;53.50;102546.34;4981014;27;112001;-57
2022/01/24 09:38:41;;;;;;;;;;;;;;;16.54;53.49;102542.28;4982471;28;110476;-65
2022/01/24 09:41:08;;;;;;;;;;;;;;;16.53;53.77;102544.19;4979764;28;127315;-64
2022/01/24 09:43:34;;;;;;;;;;;;;;;16.51;53.87;102548.25;4982469;27;121132;-61
2022/01/24 09:46:02;;;;;;;;;;;;;;;16.48;53.79;102540.59;4981253;28;98029;-64
2022/01/24 09:48:28;;;;;;;;;;;;;;;16.45;53.97;102542.75;4981207;28;107375;-64
2022/01/24 09:50:54;;;;;;;;;;;;;;;16.44;53.85;102540.28;4982510;27;98419;-64
2022/01/24 09:53:21;;;;;;;;;;;;;;;16.40;54.23;102548.16;4980168;28;128675;-64
2022/01/24 09:55:47;;;;;;;;;;;;;;;16.38;54.11;102542.13;4979691;28;111079;-64
2022/01/24 09:58:13;;;;;;;;;;;;;;;16.35;54.22;102547.28;4982520;28;97642;-64
2022/01/24 10:00:39;;;;;;;;;;;;;;;16.33;54.33;102550.25;4979761;28;129009;-63
2022/01/24 10:03:07;;;;;;;;;;;;;;;16.31;54.12;102549.69;4981701;28;113237;-64
2022/01/24 10:05:35;;;;;;;;;;;;;;;16.29;54.51;102549.09;4979363;28;111523;-57
2022/01/24 10:08:08;;;;;;;;;;;;;;;16.28;54.63;102554.81;4982476;27;98091;-57
2022/01/24 10:11:02;;;;;;;;;;;;;;;16.26;54.65;102551.50;4978640;27;98516;-57
2022/01/24 10:16:36;;;;;;;;;;;;;;;16.33;54.43;102539.34;4977295;28;97668;-64
2022/01/24 10:19:19;;;;;;;;;;;;;;;16.37;54.43;102539.66;4982549;28;97886;-64
2022/01/24 10:21:47;;;;;;;;;;;;;;;16.45;54.26;102531.84;4981381;27;98988;-64
2022/01/24 10:24:26;;;;;;;;;;;;;;;16.54;54.04;102528.66;4980231;27;112514;-64
2022/01/24 10:27:11;;;;;;;;;;;;;;;16.62;53.96;102530.91;4979494;28;98746;-57
2022/01/24 10:30:00;;;;;;;;;;;;;;;16.71;53.99;102534.84;4981927;27;98066;-57
2022/01/24 10:32:30;;;;;;;;;;;;;;;16.78;53.76;102523.72;4981114;28;116769;-57
2022/01/24 10:34:57;;;;;;;;;;;;;;;16.82;53.92;102520.25;4981062;27;97743;-57
2022/01/24 10:37:23;;;;;;;;;;;;;;;16.87;53.97;102524.91;4978758;28;97767;-57
2022/01/24 10:39:59;;;;;;;;;;;;;;;16.87;54.11;102530.38;4980302;27;99439;-64
2022/01/24 10:44:53;;;;;;;;;;;;;;;16.81;54.31;102529.50;4980313;28;98454;-57
2022/01/24 10:47:32;;;;;;;;;;;;;;;16.80;54.47;102527.03;4980285;27;120045;-57
2022/01/24 10:50:00;;;;;;;;;;;;;;;16.82;54.64;102528.44;4980848;27;99550;-56
2022/01/24 10:52:30;;;;;;;;;;;;;;;16.84;54.20;102528.16;4980548;28;119395;-58
2022/01/24 10:55:21;;;;;;;;;;;;;;;16.91;54.30;102523.31;4981201;27;98116;-64
2022/01/24 10:57:49;;;;;;;;;;;;;;;17.00;54.14;102520.94;4979460;28;120447;-58
2022/01/24 11:00:18;;;;;;;;;;;;;;;17.03;54.27;102521.22;4981086;27;99331;-64
2022/01/24 11:02:45;;;;;;;;;;;;;;;17.07;54.26;102518.81;4980746;27;98427;-57
2022/01/24 11:05:22;;;;;;;;;;;;;;;17.11;54.12;102519.94;4980607;27;98800;-64
2022/01/24 11:07:57;;;;;;;;;;;;;;;17.14;53.80;102513.97;4979519;27;98361;-56
2022/01/24 11:10:27;;;;;;;;;;;;;;;17.16;54.05;102512.59;4980816;27;97683;-64
2022/01/24 11:12:53;;;;;;;;;;;;;;;17.22;54.03;102509.91;4980835;28;98245;-57
2022/01/24 11:15:20;;;;;;;;;;;;;;;17.24;54.06;102510.47;4979984;27;98770;-64
2022/01/24 11:17:47;;;;;;;;;;;;;;;17.27;54.19;102507.22;4981907;27;97810;-56
2022/01/24 11:20:16;;;;;;;;;;;;;;;17.27;54.18;102497.13;4979393;27;97964;-57
2022/01/24 11:22:49;;;;;;;;;;;;;;;17.26;54.19;102498.22;4979161;28;101077;-64
2022/01/24 11:25:15;;;;;;;;;;;;;;;17.29;54.29;102497.72;4984152;28;98536;-64
2022/01/24 11:27:43;;;;;;;;;;;;;;;17.32;54.21;102485.44;4983648;28;98173;-64
2022/01/24 11:30:18;;;;;;;;;;;;;;;17.35;54.24;102487.63;4983446;28;98052;-57
2022/01/24 11:32:55;;;;;;;;;;;;;;;17.38;54.13;102484.41;4983398;27;114861;-64
2022/01/24 11:35:41;;;;;;;;;;;;;;;17.39;54.22;102475.94;4983574;27;99904;-57
2022/01/24 11:38:35;;;;;;;;;;;;;;;17.50;54.13;102473.28;4983916;28;98029;-64
2022/01/24 11:41:31;;;;;;;;;;;;;;;17.62;54.04;102480.13;4984322;27;97835;-58
2022/01/24 11:44:06;;;;;;;;;;;;;;;17.72;53.97;102473.91;5013114;27;98356;-64
2022/01/24 11:46:46;;;;;;;;;;;;;;;17.79;53.91;102482.69;4983716;28;98793;-64
2022/01/24 11:49:32;;;;;;;;;;;;;;;17.87;53.77;102478.63;4974712;28;98280;-64
2022/01/24 11:52:11;;;;;;;;;;;;;;;17.93;53.69;102476.75;4982282;28;97758;-57
2022/01/24 11:54:58;;;;;;;;;;;;;;;17.97;53.98;102469.66;4963625;28;98924;-57
2022/01/24 11:57:44;;;;;;;;;;;;;;;18.01;53.87;102476.22;4964614;28;98361;-64
2022/01/24 12:00:33;;;;;;;;;;;;;;;18.01;53.99;102477.03;4969456;28;97955;-57
2022/01/24 12:03:01;;;;;;;;;;;;;;;17.98;54.05;102472.09;4984420;28;97997;-64
2022/01/24 12:05:44;;;;;;;;;;;;;;;17.95;54.13;102469.91;4983599;27;98421;-64
2022/01/24 12:08:11;;;;;;;;;;;;;;;17.91;54.39;102466.09;4983151;27;97861;-57
2022/01/24 12:10:43;;;;;;;;;;;;;;;17.88;54.35;102472.06;4982943;27;98157;-57
2022/01/24 12:13:35;;;;;;;;;;;;;;;17.84;54.28;102473.69;4981776;28;97778;-56
2022/01/24 12:16:06;;;;;;;;;;;;;;;17.81;54.70;102466.06;4984066;27;99277;-63
2022/01/24 12:18:33;;;;;;;;;;;;;;;17.78;54.44;102463.88;4983824;27;98300;-57
2022/01/24 12:21:05;;;;;;;;;;;;;;;17.76;54.44;102464.13;4982190;28;97896;-57
2022/01/24 12:23:34;;;;;;;;;;;;;;;17.75;54.46;102459.75;4983528;27;97776;-65
2022/01/24 12:26:07;;;;;;;;;;;;;;;17.74;54.48;102458.09;4982381;27;98938;-64
2022/01/24 12:28:42;;;;;;;;;;;;;;;17.73;54.66;102453.75;4982774;28;98446;-57
2022/01/24 12:31:30;;;;;;;;;;;;;;;17.75;54.64;102451.56;4982943;27;97825;-64
2022/01/24 12:33:58;;;;;;;;;;;;;;;17.79;54.46;102446.41;4982439;27;97996;-57
2022/01/24 12:36:46;;;;;;;;;;;;;;;17.83;54.40;102455.69;4982876;27;98488;-57
2022/01/24 12:39:34;;;;;;;;;;;;;;;17.89;54.26;102454.63;4983628;28;98199;-64
2022/01/24 12:42:10;;;;;;;;;;;;;;;17.97;54.01;102447.84;4976946;27;98552;-57
2022/01/24 12:47:06;;;;;;;;;;;;;;;18.17;53.77;102450.59;4980463;27;98072;-65
2022/01/24 12:49:33;;;;;;;;;;;;;;;18.28;53.82;102448.72;4981996;28;98496;-64
2022/01/24 12:52:06;;;;;;;;;;;;;;;18.36;53.63;102448.97;4982866;28;98301;-65
2022/01/24 12:54:34;;;;;;;;;;;;;;;18.44;53.91;102441.34;4981306;28;103842;-57
2022/01/24 12:57:01;;;;;;;;;;;;;;;18.45;53.77;102441.06;4982066;27;123729;-57
2022/01/24 12:59:27;;;;;;;;;;;;;;;18.48;53.91;102440.53;4982306;27;98778;-64
2022/01/24 13:01:56;;;;;;;;;;;;;;;18.50;53.95;102440.25;4980637;27;98865;-65
2022/01/24 13:04:33;;;;;;;;;;;;;;;18.49;53.94;102436.69;4982849;28;97900;-65
2022/01/24 13:06:59;;;;;;;;;;;;;;;18.43;54.16;102434.22;4982777;28;98394;-64
2022/01/24 13:09:25;;;;;;;;;;;;;;;18.34;54.24;102431.22;4982461;28;105110;-64
2022/01/24 13:11:56;;;;;;;;;;;;;;;18.26;54.47;102423.59;4981532;27;126988;-65
2022/01/24 13:14:31;;;;;;;;;;;;;;;18.15;54.59;102428.19;4982781;27;97767;-64
2022/01/24 13:22:47;;;;;;;;;;;;;;;17.76;55.15;102427.84;4979006;28;97840;-64
2022/01/24 13:25:16;;;;;;;;;;;;;;;17.65;55.03;102427.81;4981746;27;97907;-64
2022/01/24 13:27:46;;;;;;;;;;;;;;;17.60;55.02;102432.41;4982520;27;98664;-64
2022/01/24 13:30:23;;;;;;;;;;;;;;;17.53;55.27;102432.69;4981851;27;98752;-64
2022/01/24 13:32:53;;;;;;;;;;;;;;;17.47;55.26;102431.00;4982009;27;97906;-64
2022/01/24 13:35:27;;;;;;;;;;;;;;;17.42;55.26;102426.34;4982305;27;97744;-64
2022/01/24 13:38:04;;;;;;;;;;;;;;;17.37;55.11;102426.34;4979923;28;98453;-64
2022/01/24 13:40:34;;;;;;;;;;;;;;;17.32;55.16;102426.28;4981211;27;121104;-65
2022/01/24 13:43:00;;;;;;;;;;;;;;;17.27;55.16;102425.47;4982286;28;98517;-64
2022/01/24 13:45:26;;;;;;;;;;;;;;;17.23;55.26;102425.16;4979414;27;100157;-64
2022/01/24 13:47:59;;;;;;;;;;;;;;;17.20;55.26;102422.97;4981920;28;99111;-64
2022/01/24 13:50:26;;;;;;;;;;;;;;;17.15;55.22;102426.50;4983112;27;98077;-64
2022/01/24 13:52:52;;;;;;;;;;;;;;;17.12;55.10;102420.75;4983422;27;98354;-64
2022/01/24 13:55:19;;;;;;;;;;;;;;;17.09;55.24;102418.53;4980895;27;117427;-64
2022/01/24 13:57:46;;;;;;;;;;;;;;;17.08;55.16;102425.09;4981278;28;98774;-64
2022/01/24 14:00:15;;;;;;;;;;;;;;;17.05;55.18;102420.16;4980211;27;99239;-64
2022/01/24 14:02:41;;;;;;;;;;;;;;;17.01;55.23;102413.59;4982439;28;98699;-64
2022/01/24 14:05:08;;;;;;;;;;;;;;;16.96;55.26;102411.66;4981122;27;106026;-64
2022/01/24 14:07:41;;;;;;;;;;;;;;;16.91;55.24;102409.75;4981473;28;98064;-64
2022/01/24 14:10:11;;;;;;;;;;;;;;;16.88;55.18;102410.25;4979462;27;98482;-64
2022/01/24 14:12:46;;;;;;;;;;;;;;;16.87;55.29;102405.09;4977542;27;98546;-56
2022/01/24 14:20:45;;;;;;;;;;;;;;;16.83;55.29;102406.69;4977334;27;98813;-64
2022/01/24 14:23:34;;;;;;;;;;;;;;;16.81;55.18;102404.22;4977934;27;117104;-57
2022/01/24 14:26:11;;;;;;;;;;;;;;;16.79;55.07;102411.84;4976061;27;97957;-64
2022/01/24 14:28:37;;;;;;;;;;;;;;;16.76;55.05;102415.09;4974428;28;123271;-64
2022/01/24 14:31:05;;;;;;;;;;;;;;;16.72;55.12;102410.41;4975140;28;128032;-57
2022/01/24 14:33:31;;;;;;;;;;;;;;;16.68;55.01;102418.25;4974087;28;98040;-57
2022/01/24 14:36:11;;;;;;;;;;;;;;;16.64;55.13;102420.69;4973868;28;98277;-64
2022/01/24 14:38:44;;;;;;;;;;;;;;;16.59;55.26;102423.38;4975610;28;98623;-57
2022/01/24 14:41:18;;;;;;;;;;;;;;;16.56;55.14;102423.91;4975465;27;98649;-65
2022/01/24 14:46:33;;;;;;;;;;;;;;;16.50;55.22;102426.81;4971950;28;98293;-64
2022/01/24 14:49:08;;;;;;;;;;;;;;;16.46;55.10;102429.25;4973592;28;106057;-57
2022/01/24 14:51:36;;;;;;;;;;;;;;;16.43;55.25;102429.78;4975141;27;121348;-65